sensor_id;sensor_type;location;lat;lon;timestamp;temperature;humidity
15103;DHT22;7652;53.584;9.998;2023-04-08T00:02:14;7.60;99.90
15103;DHT22;7652;53.584;9.998;2023-04-08T00:05:17;7.70;99.90
15103;DHT22;7652;53.584;9.998;2023-04-08T00:08:21;7.70;99.90
15103;DHT22;7652;53.584;9.998;2023-04-08T00:11:23;7.70;99.90
15103;DHT22;7652;53.584;9.998;2023-04-08T00:14:28;7.70;99.90
15103;DHT22;7652;53.584;9.998;2023-04-08T00:17:31;7.70;99.90
15103;DHT22;7652;53.584;9.998;2023-04-08T00:20:34;7.70;99.90
15103;DHT22;7652;53.584;9.998;2023-04-08T00:23:37;7.60;99.90
15103;DHT22;7652;53.584;9.998;2023-04-08T00:26:40;7.70;99.90
15103;DHT22;7652;53.584;9.998;2023-04-08T00:29:44;7.70;99.90
15103;DHT22;7652;53.584;9.998;2023-04-08T00:32:47;7.70;99.90
15103;DHT22;7652;53.584;9.998;2023-04-08T00:35:50;7.80;99.90
15103;DHT22;7652;53.584;9.998;2023-04-08T00:38:53;7.70;99.90
15103;DHT22;7652;53.584;9.998;2023-04-08T00:41:56;7.70;99.90
15103;DHT22;7652;53.584;9.998;2023-04-08T00:45:00;7.60;99.90
15103;DHT22;7652;53.584;9.998;2023-04-08T00:48:04;7.70;99.90
15103;DHT22;7652;53.584;9.998;2023-04-08T00:51:07;7.60;99.90
15103;DHT22;7652;53.584;9.998;2023-04-08T00:54:10;7.70;99.90
15103;DHT22;7652;53.584;9.998;2023-04-08T00:57:13;7.80;99.90
15103;DHT22;7652;53.584;9.998;2023-04-08T01:00:18;7.80;99.90
15103;DHT22;7652;53.584;9.998;2023-04-08T01:03:28;7.80;99.90
15103;DHT22;7652;53.584;9.998;2023-04-08T01:06:40;7.80;99.90
15103;DHT22;7652;53.584;9.998;2023-04-08T01:09:51;7.80;99.90
15103;DHT22;7652;53.584;9.998;2023-04-08T01:12:56;7.70;99.90
15103;DHT22;7652;53.584;9.998;2023-04-08T01:16:00;7.70;99.90
15103;DHT22;7652;53.584;9.998;2023-04-08T01:19:05;7.60;99.90
15103;DHT22;7652;53.584;9.998;2023-04-08T01:22:14;7.70;99.90
15103;DHT22;7652;53.584;9.998;2023-04-08T01:25:24;7.70;99.90
15103;DHT22;7652;53.584;9.998;2023-04-08T01:28:30;7.70;99.90
15103;DHT22;7652;53.584;9.998;2023-04-08T01:31:35;7.60;99.90
15103;DHT22;7652;53.584;9.998;2023-04-08T01:34:39;7.70;99.90
15103;DHT22;7652;53.584;9.998;2023-04-08T01:37:44;7.70;99.90
15103;DHT22;7652;53.584;9.998;2023-04-08T01:40:48;7.70;99.90
15103;DHT22;7652;53.584;9.998;2023-04-08T01:43:54;7.70;99.90
15103;DHT22;7652;53.584;9.998;2023-04-08T01:46:58;7.70;99.90
15103;DHT22;7652;53.584;9.998;2023-04-08T01:50:02;7.60;99.90
15103;DHT22;7652;53.584;9.998;2023-04-08T01:53:07;7.60;99.90
15103;DHT22;7652;53.584;9.998;2023-04-08T01:56:12;7.60;99.90
15103;DHT22;7652;53.584;9.998;2023-04-08T01:59:19;7.60;99.90
15103;DHT22;7652;53.584;9.998;2023-04-08T02:02:25;7.60;99.90
15103;DHT22;7652;53.584;9.998;2023-04-08T02:05:29;7.60;99.90
15103;DHT22;7652;53.584;9.998;2023-04-08T02:08:33;7.60;99.90
15103;DHT22;7652;53.584;9.998;2023-04-08T02:11:36;7.60;99.90
15103;DHT22;7652;53.584;9.998;2023-04-08T02:14:41;7.60;99.90
15103;DHT22;7652;53.584;9.998;2023-04-08T02:17:47;7.60;99.90
15103;DHT22;7652;53.584;9.998;2023-04-08T02:20:56;7.60;99.90
15103;DHT22;7652;53.584;9.998;2023-04-08T02:24:04;7.60;99.90
15103;DHT22;7652;53.584;9.998;2023-04-08T02:27:10;7.60;99.90
15103;DHT22;7652;53.584;9.998;2023-04-08T02:30:15;7.50;99.90
15103;DHT22;7652;53.584;9.998;2023-04-08T02:33:20;7.50;99.90
15103;DHT22;7652;53.584;9.998;2023-04-08T02:36:24;7.50;99.90
15103;DHT22;7652;53.584;9.998;2023-04-08T02:39:31;7.50;99.90
15103;DHT22;7652;53.584;9.998;2023-04-08T02:42:34;7.50;99.90
15103;DHT22;7652;53.584;9.998;2023-04-08T02:45:40;7.50;99.90
15103;DHT22;7652;53.584;9.998;2023-04-08T02:48:43;7.50;99.90
15103;DHT22;7652;53.584;9.998;2023-04-08T02:51:46;7.50;99.90
15103;DHT22;7652;53.584;9.998;2023-04-08T02:54:49;7.60;99.90
15103;DHT22;7652;53.584;9.998;2023-04-08T02:57:52;7.60;99.90
15103;DHT22;7652;53.584;9.998;2023-04-08T03:00:57;7.50;99.90
15103;DHT22;7652;53.584;9.998;2023-04-08T03:04:00;7.50;99.90
15103;DHT22;7652;53.584;9.998;2023-04-08T03:07:03;7.50;99.90
15103;DHT22;7652;53.584;9.998;2023-04-08T03:10:10;7.50;99.90
15103;DHT22;7652;53.584;9.998;2023-04-08T03:13:14;7.50;99.90
15103;DHT22;7652;53.584;9.998;2023-04-08T03:16:18;7.50;99.90
15103;DHT22;7652;53.584;9.998;2023-04-08T03:19:22;7.50;99.90
15103;DHT22;7652;53.584;9.998;2023-04-08T03:22:25;7.50;99.90
15103;DHT22;7652;53.584;9.998;2023-04-08T03:25:28;7.60;99.90
15103;DHT22;7652;53.584;9.998;2023-04-08T03:28:31;7.50;99.90
15103;DHT22;7652;53.584;9.998;2023-04-08T03:31:35;7.50;99.90
15103;DHT22;7652;53.584;9.998;2023-04-08T03:34:38;7.50;99.90
15103;DHT22;7652;53.584;9.998;2023-04-08T03:37:41;7.40;99.90
15103;DHT22;7652;53.584;9.998;2023-04-08T03:40:44;7.40;99.90
15103;DHT22;7652;53.584;9.998;2023-04-08T03:43:47;7.40;99.90
15103;DHT22;7652;53.584;9.998;2023-04-08T03:46:52;7.30;99.90
15103;DHT22;7652;53.584;9.998;2023-04-08T03:49:55;7.30;99.90
15103;DHT22;7652;53.584;9.998;2023-04-08T03:52:57;7.30;99.90
15103;DHT22;7652;53.584;9.998;2023-04-08T03:56:00;7.30;99.90
15103;DHT22;7652;53.584;9.998;2023-04-08T03:59:05;7.40;99.90
15103;DHT22;7652;53.584;9.998;2023-04-08T04:02:09;7.30;99.90
15103;DHT22;7652;53.584;9.998;2023-04-08T04:05:12;7.30;99.90
15103;DHT22;7652;53.584;9.998;2023-04-08T04:08:15;7.30;99.90
15103;DHT22;7652;53.584;9.998;2023-04-08T04:11:18;7.20;99.90
15103;DHT22;7652;53.584;9.998;2023-04-08T04:14:22;7.20;99.90
15103;DHT22;7652;53.584;9.998;2023-04-08T04:17:26;7.10;99.90
15103;DHT22;7652;53.584;9.998;2023-04-08T04:20:29;7.20;99.90
15103;DHT22;7652;53.584;9.998;2023-04-08T04:23:32;7.10;99.90
15103;DHT22;7652;53.584;9.998;2023-04-08T04:26:35;7.10;99.90
15103;DHT22;7652;53.584;9.998;2023-04-08T04:29:38;7.10;99.90
15103;DHT22;7652;53.584;9.998;2023-04-08T04:32:42;7.00;99.90
15103;DHT22;7652;53.584;9.998;2023-04-08T04:35:45;7.10;99.90
15103;DHT22;7652;53.584;9.998;2023-04-08T04:38:49;7.10;99.90
15103;DHT22;7652;53.584;9.998;2023-04-08T04:41:52;7.10;99.90
15103;DHT22;7652;53.584;9.998;2023-04-08T04:44:55;7.10;99.90
15103;DHT22;7652;53.584;9.998;2023-04-08T04:48:00;7.10;99.90
15103;DHT22;7652;53.584;9.998;2023-04-08T04:51:04;7.00;99.90
15103;DHT22;7652;53.584;9.998;2023-04-08T04:54:08;7.00;99.90
15103;DHT22;7652;53.584;9.998;2023-04-08T04:57:11;7.00;99.90
15103;DHT22;7652;53.584;9.998;2023-04-08T05:00:14;7.10;99.90
15103;DHT22;7652;53.584;9.998;2023-04-08T05:03:19;7.10;99.90
15103;DHT22;7652;53.584;9.998;2023-04-08T05:06:22;7.00;99.90
15103;DHT22;7652;53.584;9.998;2023-04-08T05:09:25;7.10;99.90
15103;DHT22;7652;53.584;9.998;2023-04-08T05:12:28;7.10;99.90
15103;DHT22;7652;53.584;9.998;2023-04-08T05:15:31;7.10;99.90
15103;DHT22;7652;53.584;9.998;2023-04-08T05:18:36;7.20;99.90
15103;DHT22;7652;53.584;9.998;2023-04-08T05:21:39;7.20;99.90
15103;DHT22;7652;53.584;9.998;2023-04-08T05:24:42;7.20;99.90
15103;DHT22;7652;53.584;9.998;2023-04-08T05:27:45;7.20;99.90
15103;DHT22;7652;53.584;9.998;2023-04-08T05:30:48;7.10;99.90
15103;DHT22;7652;53.584;9.998;2023-04-08T05:33:54;7.10;99.90
15103;DHT22;7652;53.584;9.998;2023-04-08T05:36:57;7.10;99.90
15103;DHT22;7652;53.584;9.998;2023-04-08T05:39:59;7.00;99.90
15103;DHT22;7652;53.584;9.998;2023-04-08T05:43:02;7.10;99.90
15103;DHT22;7652;53.584;9.998;2023-04-08T05:46:06;7.10;99.90
15103;DHT22;7652;53.584;9.998;2023-04-08T05:49:11;7.20;99.90
15103;DHT22;7652;53.584;9.998;2023-04-08T05:52:14;7.20;99.90
15103;DHT22;7652;53.584;9.998;2023-04-08T05:55:17;7.30;99.90
15103;DHT22;7652;53.584;9.998;2023-04-08T05:58:20;7.20;99.90
15103;DHT22;7652;53.584;9.998;2023-04-08T06:01:23;7.20;99.90
15103;DHT22;7652;53.584;9.998;2023-04-08T06:04:28;7.20;99.90
15103;DHT22;7652;53.584;9.998;2023-04-08T06:07:31;7.20;99.90
15103;DHT22;7652;53.584;9.998;2023-04-08T06:10:34;7.20;99.90
15103;DHT22;7652;53.584;9.998;2023-04-08T06:13:37;7.30;99.90
15103;DHT22;7652;53.584;9.998;2023-04-08T06:16:40;7.30;99.90
15103;DHT22;7652;53.584;9.998;2023-04-08T06:19:44;7.20;99.90
15103;DHT22;7652;53.584;9.998;2023-04-08T06:22:47;7.30;99.90
15103;DHT22;7652;53.584;9.998;2023-04-08T06:25:52;7.20;99.90
15103;DHT22;7652;53.584;9.998;2023-04-08T06:28:55;7.20;99.90
15103;DHT22;7652;53.584;9.998;2023-04-08T06:31:58;7.10;99.90
15103;DHT22;7652;53.584;9.998;2023-04-08T06:35:03;7.00;99.90
15103;DHT22;7652;53.584;9.998;2023-04-08T06:38:06;7.00;99.90
15103;DHT22;7652;53.584;9.998;2023-04-08T06:41:09;7.10;99.90
15103;DHT22;7652;53.584;9.998;2023-04-08T06:44:12;7.20;99.90
15103;DHT22;7652;53.584;9.998;2023-04-08T06:47:15;7.20;99.90
15103;DHT22;7652;53.584;9.998;2023-04-08T06:50:19;7.30;99.90
15103;DHT22;7652;53.584;9.998;2023-04-08T06:53:22;7.30;99.90
15103;DHT22;7652;53.584;9.998;2023-04-08T06:56:26;7.40;99.90
15103;DHT22;7652;53.584;9.998;2023-04-08T06:59:29;7.40;99.90
15103;DHT22;7652;53.584;9.998;2023-04-08T07:02:32;7.30;99.90
15103;DHT22;7652;53.584;9.998;2023-04-08T07:05:36;7.30;99.90
15103;DHT22;7652;53.584;9.998;2023-04-08T07:08:40;7.30;99.90
15103;DHT22;7652;53.584;9.998;2023-04-08T07:11:43;7.20;99.90
15103;DHT22;7652;53.584;9.998;2023-04-08T07:14:46;7.30;99.90
15103;DHT22;7652;53.584;9.998;2023-04-08T07:17:49;7.40;99.90
15103;DHT22;7652;53.584;9.998;2023-04-08T07:20:53;7.40;99.90
15103;DHT22;7652;53.584;9.998;2023-04-08T07:23:57;7.40;99.90
15103;DHT22;7652;53.584;9.998;2023-04-08T07:27:00;7.40;99.90
15103;DHT22;7652;53.584;9.998;2023-04-08T07:30:03;7.30;99.90
15103;DHT22;7652;53.584;9.998;2023-04-08T07:33:06;7.30;99.90
15103;DHT22;7652;53.584;9.998;2023-04-08T07:36:12;7.20;99.90
15103;DHT22;7652;53.584;9.998;2023-04-08T07:39:16;7.30;99.90
15103;DHT22;7652;53.584;9.998;2023-04-08T07:42:19;7.40;99.90
15103;DHT22;7652;53.584;9.998;2023-04-08T07:45:22;7.30;99.90
15103;DHT22;7652;53.584;9.998;2023-04-08T07:48:25;7.40;99.90
15103;DHT22;7652;53.584;9.998;2023-04-08T07:51:30;7.30;99.90
15103;DHT22;7652;53.584;9.998;2023-04-08T07:54:33;7.30;99.90
15103;DHT22;7652;53.584;9.998;2023-04-08T07:57:36;7.50;99.90
15103;DHT22;7652;53.584;9.998;2023-04-08T08:00:39;7.60;99.90
15103;DHT22;7652;53.584;9.998;2023-04-08T08:03:42;7.60;99.90
15103;DHT22;7652;53.584;9.998;2023-04-08T08:06:47;7.60;99.90
15103;DHT22;7652;53.584;9.998;2023-04-08T08:09:50;7.70;99.90
15103;DHT22;7652;53.584;9.998;2023-04-08T08:12:53;7.60;99.90
15103;DHT22;7652;53.584;9.998;2023-04-08T08:15:56;7.50;99.90
15103;DHT22;7652;53.584;9.998;2023-04-08T08:18:59;7.60;99.90
15103;DHT22;7652;53.584;9.998;2023-04-08T08:22:03;7.70;99.90
15103;DHT22;7652;53.584;9.998;2023-04-08T08:25:07;7.70;99.90
15103;DHT22;7652;53.584;9.998;2023-04-08T08:28:10;7.80;99.90
15103;DHT22;7652;53.584;9.998;2023-04-08T08:31:13;7.80;99.90
15103;DHT22;7652;53.584;9.998;2023-04-08T08:34:16;7.70;99.90
15103;DHT22;7652;53.584;9.998;2023-04-08T08:37:21;7.90;99.90
15103;DHT22;7652;53.584;9.998;2023-04-08T08:40:24;8.00;99.90
15103;DHT22;7652;53.584;9.998;2023-04-08T08:43:27;8.10;99.90
15103;DHT22;7652;53.584;9.998;2023-04-08T08:46:31;8.00;99.90
15103;DHT22;7652;53.584;9.998;2023-04-08T08:49:34;8.10;99.90
15103;DHT22;7652;53.584;9.998;2023-04-08T08:52:39;8.10;99.90
15103;DHT22;7652;53.584;9.998;2023-04-08T08:55:49;8.20;99.90
15103;DHT22;7652;53.584;9.998;2023-04-08T08:59:13;8.20;99.90
15103;DHT22;7652;53.584;9.998;2023-04-08T09:02:23;8.20;99.90
15103;DHT22;7652;53.584;9.998;2023-04-08T09:05:28;8.30;99.90
15103;DHT22;7652;53.584;9.998;2023-04-08T09:08:34;8.20;99.90
15103;DHT22;7652;53.584;9.998;2023-04-08T09:11:38;8.30;99.90
15103;DHT22;7652;53.584;9.998;2023-04-08T09:14:42;8.40;99.90
15103;DHT22;7652;53.584;9.998;2023-04-08T09:17:45;8.40;99.90
15103;DHT22;7652;53.584;9.998;2023-04-08T09:20:51;8.50;99.90
15103;DHT22;7652;53.584;9.998;2023-04-08T09:23:55;8.60;99.90
15103;DHT22;7652;53.584;9.998;2023-04-08T09:26:58;8.60;99.90
15103;DHT22;7652;53.584;9.998;2023-04-08T09:30:15;8.80;99.90
15103;DHT22;7652;53.584;9.998;2023-04-08T09:33:18;8.90;99.90
15103;DHT22;7652;53.584;9.998;2023-04-08T09:36:21;8.80;99.90
15103;DHT22;7652;53.584;9.998;2023-04-08T09:39:25;8.80;99.90
15103;DHT22;7652;53.584;9.998;2023-04-08T09:42:28;8.80;99.90
15103;DHT22;7652;53.584;9.998;2023-04-08T09:45:33;8.70;99.90
15103;DHT22;7652;53.584;9.998;2023-04-08T09:48:40;8.80;99.90
15103;DHT22;7652;53.584;9.998;2023-04-08T09:51:49;8.90;99.90
15103;DHT22;7652;53.584;9.998;2023-04-08T09:55:00;9.10;99.90
15103;DHT22;7652;53.584;9.998;2023-04-08T09:58:10;9.10;99.90
15103;DHT22;7652;53.584;9.998;2023-04-08T10:01:14;9.10;99.90
15103;DHT22;7652;53.584;9.998;2023-04-08T10:04:20;9.10;99.90
15103;DHT22;7652;53.584;9.998;2023-04-08T10:07:26;9.30;99.90
15103;DHT22;7652;53.584;9.998;2023-04-08T10:10:31;9.50;99.90
15103;DHT22;7652;53.584;9.998;2023-04-08T10:13:35;9.40;99.90
15103;DHT22;7652;53.584;9.998;2023-04-08T10:16:38;9.30;99.90
15103;DHT22;7652;53.584;9.998;2023-04-08T10:19:41;9.40;99.90
15103;DHT22;7652;53.584;9.998;2023-04-08T10:22:45;9.40;99.90
15103;DHT22;7652;53.584;9.998;2023-04-08T10:25:51;9.40;99.90
15103;DHT22;7652;53.584;9.998;2023-04-08T10:28:54;9.30;99.90
15103;DHT22;7652;53.584;9.998;2023-04-08T10:31:57;9.40;99.90
15103;DHT22;7652;53.584;9.998;2023-04-08T10:35:00;9.30;99.90
15103;DHT22;7652;53.584;9.998;2023-04-08T10:38:03;9.50;99.90
15103;DHT22;7652;53.584;9.998;2023-04-08T10:41:09;9.30;99.90
15103;DHT22;7652;53.584;9.998;2023-04-08T10:44:15;9.30;99.90
15103;DHT22;7652;53.584;9.998;2023-04-08T10:47:24;9.30;99.90
15103;DHT22;7652;53.584;9.998;2023-04-08T10:50:29;9.20;99.90
15103;DHT22;7652;53.584;9.998;2023-04-08T10:53:34;9.40;99.90
15103;DHT22;7652;53.584;9.998;2023-04-08T10:56:44;9.40;99.90
15103;DHT22;7652;53.584;9.998;2023-04-08T10:59:48;9.30;99.90
15103;DHT22;7652;53.584;9.998;2023-04-08T11:02:51;9.30;99.90
15103;DHT22;7652;53.584;9.998;2023-04-08T11:05:56;9.30;99.90
15103;DHT22;7652;53.584;9.998;2023-04-08T11:09:01;9.30;99.90
15103;DHT22;7652;53.584;9.998;2023-04-08T11:12:06;9.30;99.90
15103;DHT22;7652;53.584;9.998;2023-04-08T11:15:11;9.30;99.90
15103;DHT22;7652;53.584;9.998;2023-04-08T11:18:15;9.20;99.90
15103;DHT22;7652;53.584;9.998;2023-04-08T11:21:19;9.10;99.90
15103;DHT22;7652;53.584;9.998;2023-04-08T11:24:23;9.00;99.90
15103;DHT22;7652;53.584;9.998;2023-04-08T11:27:28;9.20;99.90
15103;DHT22;7652;53.584;9.998;2023-04-08T11:30:31;9.30;99.90
15103;DHT22;7652;53.584;9.998;2023-04-08T11:33:35;9.30;99.90
15103;DHT22;7652;53.584;9.998;2023-04-08T11:36:39;9.40;99.90
15103;DHT22;7652;53.584;9.998;2023-04-08T11:39:43;9.40;99.90
15103;DHT22;7652;53.584;9.998;2023-04-08T11:42:47;9.50;99.90
15103;DHT22;7652;53.584;9.998;2023-04-08T11:45:51;9.60;99.90
15103;DHT22;7652;53.584;9.998;2023-04-08T11:49:02;9.60;99.90
15103;DHT22;7652;53.584;9.998;2023-04-08T11:52:05;9.40;99.90
15103;DHT22;7652;53.584;9.998;2023-04-08T11:55:09;9.50;99.90
15103;DHT22;7652;53.584;9.998;2023-04-08T11:58:14;9.20;99.90
15103;DHT22;7652;53.584;9.998;2023-04-08T12:01:17;9.30;99.90
15103;DHT22;7652;53.584;9.998;2023-04-08T12:04:21;9.50;99.90
15103;DHT22;7652;53.584;9.998;2023-04-08T12:07:24;9.40;99.90
15103;DHT22;7652;53.584;9.998;2023-04-08T12:10:27;9.50;99.90
15103;DHT22;7652;53.584;9.998;2023-04-08T12:13:32;9.50;99.90
15103;DHT22;7652;53.584;9.998;2023-04-08T12:16:35;9.50;99.90
15103;DHT22;7652;53.584;9.998;2023-04-08T12:19:38;9.60;99.90
15103;DHT22;7652;53.584;9.998;2023-04-08T12:22:41;9.50;99.90
15103;DHT22;7652;53.584;9.998;2023-04-08T12:25:44;9.50;99.90
15103;DHT22;7652;53.584;9.998;2023-04-08T12:28:48;9.60;99.90
15103;DHT22;7652;53.584;9.998;2023-04-08T12:31:51;9.40;99.90
15103;DHT22;7652;53.584;9.998;2023-04-08T12:34:55;9.50;99.90
15103;DHT22;7652;53.584;9.998;2023-04-08T12:37:59;9.50;99.90
15103;DHT22;7652;53.584;9.998;2023-04-08T12:41:02;9.70;99.90
15103;DHT22;7652;53.584;9.998;2023-04-08T12:44:07;9.80;99.90
15103;DHT22;7652;53.584;9.998;2023-04-08T12:47:10;9.80;99.90
15103;DHT22;7652;53.584;9.998;2023-04-08T12:50:13;9.70;99.90
15103;DHT22;7652;53.584;9.998;2023-04-08T12:53:16;9.70;99.90
15103;DHT22;7652;53.584;9.998;2023-04-08T12:56:19;9.70;99.90
15103;DHT22;7652;53.584;9.998;2023-04-08T12:59:24;9.80;99.90
15103;DHT22;7652;53.584;9.998;2023-04-08T13:02:27;9.60;99.90
15103;DHT22;7652;53.584;9.998;2023-04-08T13:05:30;9.60;99.90
15103;DHT22;7652;53.584;9.998;2023-04-08T13:08:44;9.60;99.90
15103;DHT22;7652;53.584;9.998;2023-04-08T13:11:48;9.70;99.90
15103;DHT22;7652;53.584;9.998;2023-04-08T13:14:53;9.70;99.90
15103;DHT22;7652;53.584;9.998;2023-04-08T13:17:56;9.60;99.90
15103;DHT22;7652;53.584;9.998;2023-04-08T13:20:59;9.70;99.90
15103;DHT22;7652;53.584;9.998;2023-04-08T13:24:02;9.80;99.90
15103;DHT22;7652;53.584;9.998;2023-04-08T13:27:05;9.80;99.90
15103;DHT22;7652;53.584;9.998;2023-04-08T13:30:11;9.80;99.90
15103;DHT22;7652;53.584;9.998;2023-04-08T13:33:14;9.60;99.90
15103;DHT22;7652;53.584;9.998;2023-04-08T13:36:17;9.50;99.90
15103;DHT22;7652;53.584;9.998;2023-04-08T13:39:20;9.60;99.90
15103;DHT22;7652;53.584;9.998;2023-04-08T13:42:23;9.50;99.90
15103;DHT22;7652;53.584;9.998;2023-04-08T13:45:28;9.50;99.90
15103;DHT22;7652;53.584;9.998;2023-04-08T13:48:31;9.50;99.90
15103;DHT22;7652;53.584;9.998;2023-04-08T13:51:34;9.60;99.90
15103;DHT22;7652;53.584;9.998;2023-04-08T13:54:37;9.60;99.90
15103;DHT22;7652;53.584;9.998;2023-04-08T13:57:40;9.70;99.90
15103;DHT22;7652;53.584;9.998;2023-04-08T14:00:44;9.80;99.90
15103;DHT22;7652;53.584;9.998;2023-04-08T14:03:47;9.70;99.90
15103;DHT22;7652;53.584;9.998;2023-04-08T14:06:52;9.80;99.90
15103;DHT22;7652;53.584;9.998;2023-04-08T14:09:55;9.80;99.90
15103;DHT22;7652;53.584;9.998;2023-04-08T14:12:58;9.70;99.90
15103;DHT22;7652;53.584;9.998;2023-04-08T14:16:02;9.70;99.90
15103;DHT22;7652;53.584;9.998;2023-04-08T14:19:05;9.70;99.90
15103;DHT22;7652;53.584;9.998;2023-04-08T14:22:08;9.70;99.90
15103;DHT22;7652;53.584;9.998;2023-04-08T14:25:11;9.70;99.90
15103;DHT22;7652;53.584;9.998;2023-04-08T14:28:14;9.80;99.90
15103;DHT22;7652;53.584;9.998;2023-04-08T14:31:19;9.70;99.90
15103;DHT22;7652;53.584;9.998;2023-04-08T14:34:22;9.70;99.90
15103;DHT22;7652;53.584;9.998;2023-04-08T14:37:25;9.70;99.90
15103;DHT22;7652;53.584;9.998;2023-04-08T14:40:28;9.70;99.90
15103;DHT22;7652;53.584;9.998;2023-04-08T14:43:31;9.70;99.90
15103;DHT22;7652;53.584;9.998;2023-04-08T14:46:35;9.70;99.90
15103;DHT22;7652;53.584;9.998;2023-04-08T14:49:39;9.60;99.90
15103;DHT22;7652;53.584;9.998;2023-04-08T14:52:42;9.70;99.90
15103;DHT22;7652;53.584;9.998;2023-04-08T14:55:45;9.70;99.90
15103;DHT22;7652;53.584;9.998;2023-04-08T14:58:48;9.70;99.90
15103;DHT22;7652;53.584;9.998;2023-04-08T15:01:53;9.70;99.90
15103;DHT22;7652;53.584;9.998;2023-04-08T15:04:56;9.60;99.90
15103;DHT22;7652;53.584;9.998;2023-04-08T15:07:59;9.50;99.90
15103;DHT22;7652;53.584;9.998;2023-04-08T15:11:03;9.50;99.90
15103;DHT22;7652;53.584;9.998;2023-04-08T15:14:06;9.40;99.90
15103;DHT22;7652;53.584;9.998;2023-04-08T15:17:10;9.50;99.90
15103;DHT22;7652;53.584;9.998;2023-04-08T15:20:13;9.40;99.90
15103;DHT22;7652;53.584;9.998;2023-04-08T15:23:16;9.50;99.90
15103;DHT22;7652;53.584;9.998;2023-04-08T15:26:19;9.40;99.90
15103;DHT22;7652;53.584;9.998;2023-04-08T15:29:23;9.50;99.90
15103;DHT22;7652;53.584;9.998;2023-04-08T15:32:28;9.60;99.90
15103;DHT22;7652;53.584;9.998;2023-04-08T15:35:31;9.60;99.90
15103;DHT22;7652;53.584;9.998;2023-04-08T15:38:34;9.60;99.90
15103;DHT22;7652;53.584;9.998;2023-04-08T15:41:37;9.50;99.90
15103;DHT22;7652;53.584;9.998;2023-04-08T15:44:40;9.50;99.90
15103;DHT22;7652;53.584;9.998;2023-04-08T15:47:45;9.40;99.90
15103;DHT22;7652;53.584;9.998;2023-04-08T15:50:48;9.30;99.90
15103;DHT22;7652;53.584;9.998;2023-04-08T15:53:51;9.30;99.90
15103;DHT22;7652;53.584;9.998;2023-04-08T15:56:54;9.30;99.90
15103;DHT22;7652;53.584;9.998;2023-04-08T15:59:58;9.40;99.90
15103;DHT22;7652;53.584;9.998;2023-04-08T16:03:02;9.40;99.90
15103;DHT22;7652;53.584;9.998;2023-04-08T16:06:09;9.40;99.90
15103;DHT22;7652;53.584;9.998;2023-04-08T16:09:12;9.40;99.90
15103;DHT22;7652;53.584;9.998;2023-04-08T16:12:15;9.30;99.90
15103;DHT22;7652;53.584;9.998;2023-04-08T16:15:18;9.30;99.90
15103;DHT22;7652;53.584;9.998;2023-04-08T16:18:22;9.20;99.90
15103;DHT22;7652;53.584;9.998;2023-04-08T16:21:25;9.20;99.90
15103;DHT22;7652;53.584;9.998;2023-04-08T16:24:28;9.20;99.90
15103;DHT22;7652;53.584;9.998;2023-04-08T16:27:31;9.10;99.90
15103;DHT22;7652;53.584;9.998;2023-04-08T16:30:34;9.10;99.90
15103;DHT22;7652;53.584;9.998;2023-04-08T16:33:39;9.10;99.90
15103;DHT22;7652;53.584;9.998;2023-04-08T16:36:42;9.00;99.90
15103;DHT22;7652;53.584;9.998;2023-04-08T16:39:45;9.00;99.90
15103;DHT22;7652;53.584;9.998;2023-04-08T16:42:48;9.00;99.90
15103;DHT22;7652;53.584;9.998;2023-04-08T16:45:52;8.90;99.90
15103;DHT22;7652;53.584;9.998;2023-04-08T16:48:56;9.00;99.90
15103;DHT22;7652;53.584;9.998;2023-04-08T16:51:59;9.00;99.90
15103;DHT22;7652;53.584;9.998;2023-04-08T16:55:02;8.90;99.90
15103;DHT22;7652;53.584;9.998;2023-04-08T16:58:05;8.90;99.90
15103;DHT22;7652;53.584;9.998;2023-04-08T17:01:09;9.00;99.90
15103;DHT22;7652;53.584;9.998;2023-04-08T17:04:13;9.10;99.90
15103;DHT22;7652;53.584;9.998;2023-04-08T17:07:16;9.10;99.90
15103;DHT22;7652;53.584;9.998;2023-04-08T17:10:21;9.10;99.90
15103;DHT22;7652;53.584;9.998;2023-04-08T17:13:24;9.10;99.90
15103;DHT22;7652;53.584;9.998;2023-04-08T17:16:28;9.10;99.90
15103;DHT22;7652;53.584;9.998;2023-04-08T17:19:32;9.00;99.90
15103;DHT22;7652;53.584;9.998;2023-04-08T17:22:35;9.00;99.90
15103;DHT22;7652;53.584;9.998;2023-04-08T17:25:38;8.90;99.90
15103;DHT22;7652;53.584;9.998;2023-04-08T17:28:41;8.90;99.90
15103;DHT22;7652;53.584;9.998;2023-04-08T17:31:44;8.90;99.90
15103;DHT22;7652;53.584;9.998;2023-04-08T17:34:49;8.90;99.90
15103;DHT22;7652;53.584;9.998;2023-04-08T17:37:52;9.00;99.90
15103;DHT22;7652;53.584;9.998;2023-04-08T17:40:55;9.00;99.90
15103;DHT22;7652;53.584;9.998;2023-04-08T17:43:58;8.90;99.90
15103;DHT22;7652;53.584;9.998;2023-04-08T17:47:01;8.90;99.90
15103;DHT22;7652;53.584;9.998;2023-04-08T17:50:07;8.80;99.90
15103;DHT22;7652;53.584;9.998;2023-04-08T17:53:12;8.80;99.90
15103;DHT22;7652;53.584;9.998;2023-04-08T17:56:15;8.90;99.90
15103;DHT22;7652;53.584;9.998;2023-04-08T17:59:18;8.80;99.90
15103;DHT22;7652;53.584;9.998;2023-04-08T18:02:21;8.80;99.90
15103;DHT22;7652;53.584;9.998;2023-04-08T18:05:26;8.80;99.90
15103;DHT22;7652;53.584;9.998;2023-04-08T18:08:29;8.90;99.90
15103;DHT22;7652;53.584;9.998;2023-04-08T18:11:32;8.80;99.90
15103;DHT22;7652;53.584;9.998;2023-04-08T18:14:35;8.80;99.90
15103;DHT22;7652;53.584;9.998;2023-04-08T18:17:38;8.80;99.90
15103;DHT22;7652;53.584;9.998;2023-04-08T18:20:43;8.90;99.90
15103;DHT22;7652;53.584;9.998;2023-04-08T18:23:46;9.00;99.90
15103;DHT22;7652;53.584;9.998;2023-04-08T18:26:49;9.10;99.90
15103;DHT22;7652;53.584;9.998;2023-04-08T18:30:05;9.00;99.90
15103;DHT22;7652;53.584;9.998;2023-04-08T18:33:08;8.90;99.90
15103;DHT22;7652;53.584;9.998;2023-04-08T18:36:12;8.90;99.90
15103;DHT22;7652;53.584;9.998;2023-04-08T18:39:15;8.90;99.90
15103;DHT22;7652;53.584;9.998;2023-04-08T18:42:18;9.10;99.90
15103;DHT22;7652;53.584;9.998;2023-04-08T18:45:21;9.10;99.90
15103;DHT22;7652;53.584;9.998;2023-04-08T18:48:25;9.00;99.90
15103;DHT22;7652;53.584;9.998;2023-04-08T18:51:29;9.00;99.90
15103;DHT22;7652;53.584;9.998;2023-04-08T18:54:32;8.90;99.90
15103;DHT22;7652;53.584;9.998;2023-04-08T18:57:35;8.90;99.90
15103;DHT22;7652;53.584;9.998;2023-04-08T19:00:38;8.90;99.90
15103;DHT22;7652;53.584;9.998;2023-04-08T19:03:42;8.90;99.90
15103;DHT22;7652;53.584;9.998;2023-04-08T19:06:46;8.90;99.90
15103;DHT22;7652;53.584;9.998;2023-04-08T19:09:49;9.00;99.90
15103;DHT22;7652;53.584;9.998;2023-04-08T19:12:52;9.00;99.90
15103;DHT22;7652;53.584;9.998;2023-04-08T19:15:55;9.00;99.90
15103;DHT22;7652;53.584;9.998;2023-04-08T19:18:59;8.90;99.90
15103;DHT22;7652;53.584;9.998;2023-04-08T19:22:03;8.90;99.90
15103;DHT22;7652;53.584;9.998;2023-04-08T19:25:07;8.90;99.90
15103;DHT22;7652;53.584;9.998;2023-04-08T19:28:10;8.80;99.90
15103;DHT22;7652;53.584;9.998;2023-04-08T19:31:15;8.90;99.90
15103;DHT22;7652;53.584;9.998;2023-04-08T19:34:18;8.90;99.90
15103;DHT22;7652;53.584;9.998;2023-04-08T19:37:23;8.90;99.90
15103;DHT22;7652;53.584;9.998;2023-04-08T19:40:26;8.90;99.90
15103;DHT22;7652;53.584;9.998;2023-04-08T19:43:29;8.90;99.90
15103;DHT22;7652;53.584;9.998;2023-04-08T19:46:32;8.90;99.90
15103;DHT22;7652;53.584;9.998;2023-04-08T19:49:35;8.90;99.90
15103;DHT22;7652;53.584;9.998;2023-04-08T19:52:40;8.90;99.90
15103;DHT22;7652;53.584;9.998;2023-04-08T19:55:43;8.80;99.90
15103;DHT22;7652;53.584;9.998;2023-04-08T19:58:46;8.70;99.90
15103;DHT22;7652;53.584;9.998;2023-04-08T20:01:50;8.70;99.90